Time;durP1;ratioP1;P1;durP2;ratioP2;P2;SDS_P1;SDS_P2;PMS_P1;PMS_P2;Temp;Humidity;BMP_temperature;BMP_pressure;BME280_temperature;BME280_humidity;BME280_pressure;Samples;Min_cycle;Max_cycle;Signal;HPM_P1;HPM_P2
2023/06/13 00:01:22;;;;;;;5.22;1.60;;;;;;;16.11;48.18;102080.00;5097512;28;20032;-65
2023/06/13 00:03:48;;;;;;;5.03;1.83;;;;;;;16.16;48.21;102085.69;5117447;28;20019;-65
2023/06/13 00:06:18;;;;;;;3.00;1.95;;;;;;;16.17;48.04;102087.34;5116604;28;20057;-65
2023/06/13 00:08:44;;;;;;;3.40;1.75;;;;;;;16.21;48.01;102085.88;5115982;28;20031;-65
2023/06/13 00:11:09;;;;;;;6.18;1.80;;;;;;;16.19;48.38;102087.97;5117276;28;20373;-65
2023/06/13 00:13:36;;;;;;;4.30;1.58;;;;;;;16.20;48.54;102089.66;5116561;28;20035;-65
2023/06/13 00:16:02;;;;;;;6.00;1.95;;;;;;;16.22;48.97;102087.53;5114150;28;20028;-64
2023/06/13 00:18:31;;;;;;;4.70;2.10;;;;;;;16.30;50.01;102092.81;5096419;28;20118;-65
2023/06/13 00:20:58;;;;;;;2.70;1.92;;;;;;;16.31;51.15;102071.91;5116487;28;20048;-65
2023/06/13 00:23:26;;;;;;;9.35;2.20;;;;;;;16.52;52.08;102084.47;5115618;28;20039;-66
2023/06/13 00:25:53;;;;;;;3.70;2.40;;;;;;;16.64;52.85;102088.25;5115166;28;20032;-66
2023/06/13 00:28:19;;;;;;;4.50;2.10;;;;;;;16.72;54.08;102089.91;5116550;28;20031;-65
2023/06/13 00:30:45;;;;;;;6.22;2.28;;;;;;;16.78;54.26;102092.66;5114228;28;20072;-65
2023/06/13 00:33:17;;;;;;;3.22;2.10;;;;;;;16.83;55.36;102094.78;5115970;28;20429;-65
2023/06/13 00:35:44;;;;;;;3.95;2.50;;;;;;;16.88;55.98;102089.53;5116650;28;20051;-65
2023/06/13 00:38:10;;;;;;;6.10;2.40;;;;;;;16.95;56.53;102092.25;5115118;28;20506;-68
2023/06/13 00:40:36;;;;;;;6.22;2.30;;;;;;;16.98;56.82;102097.28;5115002;28;20058;-67
2023/06/13 00:43:02;;;;;;;6.88;2.42;;;;;;;17.03;56.99;102094.78;5115172;28;20031;-65
2023/06/13 00:45:29;;;;;;;4.50;2.50;;;;;;;17.03;57.47;102097.50;5114669;28;20557;-65
2023/06/13 00:48:02;;;;;;;5.13;2.45;;;;;;;16.96;57.94;102088.50;5116587;28;20019;-65
2023/06/13 00:50:40;;;;;;;4.68;2.70;;;;;;;17.07;58.33;102107.72;5115163;28;20375;-65
2023/06/13 00:53:17;;;;;;;3.60;2.30;;;;;;;17.09;58.91;102108.38;5111855;28;20023;-65
2023/06/13 00:55:44;;;;;;;4.53;2.50;;;;;;;17.11;59.55;102110.84;5114378;28;20035;-65
2023/06/13 00:58:11;;;;;;;4.63;2.42;;;;;;;17.17;59.85;102101.03;5116250;28;20040;-65
2023/06/13 01:00:38;;;;;;;6.70;2.70;;;;;;;17.17;60.29;102096.41;5115918;27;20036;-65
2023/06/13 01:03:09;;;;;;;3.60;2.40;;;;;;;17.21;60.97;102100.38;5116514;28;20033;-65
2023/06/13 01:05:35;;;;;;;5.93;2.50;;;;;;;17.22;61.46;102103.94;5116817;28;20081;-65
2023/06/13 01:08:06;;;;;;;5.95;2.85;;;;;;;17.24;62.17;102097.25;5116498;28;20055;-65
2023/06/13 01:10:32;;;;;;;5.97;2.55;;;;;;;17.28;62.81;102109.34;5116252;28;20031;-65
2023/06/13 01:13:16;;;;;;;5.53;2.85;;;;;;;17.28;63.04;102105.81;5114748;28;20130;-65
2023/06/13 01:15:55;;;;;;;4.67;2.33;;;;;;;17.32;63.88;102107.91;5115361;28;20024;-65
2023/06/13 01:18:24;;;;;;;4.72;2.97;;;;;;;17.32;64.16;102107.09;5113363;28;20034;-65
2023/06/13 01:20:56;;;;;;;10.45;2.97;;;;;;;17.20;64.59;102100.59;5111867;28;20416;-65
2023/06/13 01:23:30;;;;;;;5.47;2.53;;;;;;;17.22;64.91;102107.50;5110746;28;20118;-65
2023/06/13 01:26:37;;;;;;;5.60;2.88;;;;;;;17.16;65.24;102102.91;5110318;28;20027;-66
2023/06/13 01:29:04;;;;;;;3.65;2.70;;;;;;;17.06;65.37;102102.50;5105724;28;20046;-66
2023/06/13 01:31:31;;;;;;;7.43;2.40;;;;;;;16.90;65.52;102088.28;5111521;28;20023;-65
2023/06/13 01:33:58;;;;;;;6.60;2.60;;;;;;;16.97;65.90;102106.47;5112006;28;20399;-66
2023/06/13 01:36:24;;;;;;;4.20;2.67;;;;;;;16.93;66.02;102106.06;5114636;28;20060;-65
2023/06/13 01:38:50;;;;;;;6.00;2.75;;;;;;;16.85;66.44;102112.56;5113258;28;20039;-65
2023/06/13 01:41:15;;;;;;;2.97;2.30;;;;;;;16.82;66.71;102110.25;5113856;28;20032;-65
2023/06/13 01:43:41;;;;;;;5.28;3.00;;;;;;;16.84;66.95;102107.31;5115533;28;20315;-65
2023/06/13 01:46:16;;;;;;;7.35;2.83;;;;;;;16.88;67.43;102100.41;5110925;28;20023;-65
2023/06/13 01:48:55;;;;;;;7.60;2.65;;;;;;;16.87;67.43;102094.13;5114575;28;20058;-65
2023/06/13 01:51:33;;;;;;;4.88;2.45;;;;;;;16.91;67.14;102100.81;5115530;28;20028;-65
2023/06/13 01:54:06;;;;;;;4.72;2.47;;;;;;;16.79;67.26;102071.78;5115533;28;20035;-65
2023/06/13 01:56:33;;;;;;;3.05;2.17;;;;;;;16.91;66.83;102103.53;5116001;28;20038;-65
2023/06/13 01:59:10;;;;;;;3.88;2.53;;;;;;;16.97;66.81;102101.03;5117632;28;20484;-66
2023/06/13 02:01:38;;;;;;;3.20;2.33;;;;;;;16.95;66.47;102106.69;5118246;28;20040;-65
2023/06/13 02:04:04;;;;;;;7.15;2.42;;;;;;;16.92;66.30;102112.56;5119770;28;20032;-65
2023/06/13 02:06:29;;;;;;;5.70;2.22;;;;;;;16.91;66.07;102113.59;5119453;28;20051;-65
2023/06/13 02:08:56;;;;;;;5.72;2.42;;;;;;;16.86;66.19;102108.78;5119492;28;20031;-65
2023/06/13 02:11:22;;;;;;;3.95;2.20;;;;;;;16.84;66.13;102116.31;5117734;28;20055;-65
2023/06/13 02:13:48;;;;;;;2.53;2.33;;;;;;;16.67;66.12;102102.25;5117472;28;20024;-65
2023/06/13 02:16:14;;;;;;;6.00;2.53;;;;;;;16.68;66.23;102112.06;5117911;28;20043;-65
2023/06/13 02:18:40;;;;;;;4.60;2.38;;;;;;;16.60;66.12;102122.31;5117390;28;20032;-65
2023/06/13 02:21:06;;;;;;;5.68;2.60;;;;;;;16.49;65.83;102121.06;5115826;28;20096;-65
2023/06/13 02:23:32;;;;;;;5.05;2.40;;;;;;;16.29;66.12;102106.56;5115418;28;20057;-65
2023/06/13 02:25:57;;;;;;;4.97;2.63;;;;;;;16.17;66.22;102090.06;5119541;28;20051;-65
2023/06/13 02:28:23;;;;;;;2.92;2.10;;;;;;;16.28;65.81;102123.91;5118625;28;20495;-65
2023/06/13 02:30:49;;;;;;;5.72;2.53;;;;;;;16.28;66.14;102126.63;5100720;28;20028;-64
2023/06/13 02:33:15;;;;;;;5.25;2.40;;;;;;;16.29;65.97;102123.72;5118345;28;20111;-65
2023/06/13 02:35:41;;;;;;;4.43;2.25;;;;;;;16.35;65.93;102119.34;5118412;28;20035;-65
2023/06/13 02:38:07;;;;;;;3.50;2.33;;;;;;;16.44;64.44;102099.94;5114503;28;20488;-65
2023/06/13 02:40:35;;;;;;;2.75;2.20;;;;;;;16.87;62.70;102121.31;5115996;28;20024;-66
2023/06/13 02:43:01;;;;;;;4.93;2.28;;;;;;;17.18;60.79;102125.28;5114923;28;20035;-65
2023/06/13 02:45:26;;;;;;;4.35;2.13;;;;;;;17.41;59.32;102127.56;5115846;28;20095;-65
2023/06/13 02:47:52;;;;;;;6.40;2.50;;;;;;;17.61;57.83;102122.94;5115011;28;20028;-65
2023/06/13 02:50:17;;;;;;;6.03;2.30;;;;;;;17.71;56.40;102124.34;5115909;28;20024;-65
2023/06/13 02:52:43;;;;;;;3.70;2.50;;;;;;;17.69;55.72;102105.50;5117794;28;20031;-65
2023/06/13 02:55:10;;;;;;;3.78;2.50;;;;;;;17.76;54.82;102125.41;5117886;28;20028;-65
2023/06/13 02:57:37;;;;;;;3.17;2.28;;;;;;;17.75;54.63;102120.16;5117528;28;20053;-65
2023/06/13 03:00:07;;;;;;;4.30;2.58;;;;;;;17.94;53.76;102118.41;5099822;28;20053;-66
2023/06/13 03:02:33;;;;;;;8.57;2.63;;;;;;;18.36;52.86;102124.28;5118475;28;20098;-66
2023/06/13 03:04:58;;;;;;;6.13;2.35;;;;;;;18.66;51.66;102105.44;5100650;28;20039;-65
2023/06/13 03:07:24;;;;;;;5.28;2.40;;;;;;;19.01;50.51;102117.56;5098928;28;20070;-65
2023/06/13 03:09:49;;;;;;;3.80;2.50;;;;;;;19.24;49.88;102121.56;5116839;28;20077;-65
2023/06/13 03:12:15;;;;;;;5.70;2.22;;;;;;;19.54;49.14;102126.28;5116576;28;20030;-65
2023/06/13 03:14:41;;;;;;;3.85;2.25;;;;;;;19.92;48.47;102120.59;5116093;28;20107;-65
2023/06/13 03:17:06;;;;;;;3.05;2.33;;;;;;;20.06;48.17;102092.03;5116896;28;20024;-65
2023/06/13 03:19:32;;;;;;;5.07;2.55;;;;;;;20.38;47.52;102083.59;5116476;28;20444;-65
2023/06/13 03:21:57;;;;;;;2.95;2.20;;;;;;;21.03;46.18;102091.00;5116928;28;20063;-65
2023/06/13 03:24:22;;;;;;;3.30;2.40;;;;;;;21.56;44.74;102120.16;5114251;28;20131;-65
2023/06/13 03:26:48;;;;;;;4.28;2.25;;;;;;;21.84;44.10;102122.09;5117734;27;20035;-65
2023/06/13 03:29:13;;;;;;;2.85;2.15;;;;;;;22.14;43.32;102118.31;5116983;28;20065;-65
2023/06/13 03:31:39;;;;;;;4.00;2.40;;;;;;;22.39;42.75;102102.38;5119086;28;20031;-65
2023/06/13 03:34:07;;;;;;;3.67;2.08;;;;;;;22.76;42.28;102126.59;5117919;28;20508;-65
2023/06/13 03:36:37;;;;;;;4.43;2.38;;;;;;;22.95;41.65;102114.34;5116486;28;20028;-66
2023/06/13 03:39:03;;;;;;;5.15;2.78;;;;;;;23.14;41.11;102105.81;5117394;28;20020;-65
2023/06/13 03:41:28;;;;;;;4.22;2.22;;;;;;;23.35;40.73;102107.78;5117793;28;20076;-65
2023/06/13 03:43:53;;;;;;;5.78;2.17;;;;;;;23.36;40.43;102097.63;5116784;28;20042;-66
2023/06/13 03:46:19;;;;;;;5.07;2.50;;;;;;;23.42;40.07;102094.69;5117033;28;20032;-65
2023/06/13 03:48:44;;;;;;;6.22;2.20;;;;;;;23.71;39.91;102115.69;5115715;28;20118;-66
2023/06/13 03:51:10;;;;;;;7.03;2.20;;;;;;;23.75;39.58;102097.63;5115548;28;20019;-66
2023/06/13 03:53:35;;;;;;;4.45;2.20;;;;;;;24.12;39.27;102108.78;5116018;28;20243;-66
2023/06/13 03:56:02;;;;;;;4.30;2.17;;;;;;;24.38;38.85;102099.69;5115463;28;20113;-66
2023/06/13 03:58:27;;;;;;;4.18;2.03;;;;;;;24.81;38.28;102108.91;5114455;28;20076;-66
2023/06/13 04:00:54;;;;;;;4.28;2.45;;;;;;;25.09;37.92;102104.13;5115769;28;20020;-66
2023/06/13 04:03:19;;;;;;;3.47;1.98;;;;;;;25.20;38.47;102105.91;5098472;28;20023;-66
2023/06/13 04:05:45;;;;;;;3.88;2.10;;;;;;;25.40;38.81;102107.97;5099009;28;20023;-66
2023/06/13 04:08:11;;;;;;;4.03;2.10;;;;;;;25.55;39.07;102112.72;5116984;27;20038;-66
2023/06/13 04:10:36;;;;;;;4.75;2.00;;;;;;;26.13;37.93;102113.50;5081903;28;20024;-66
2023/06/13 04:13:02;;;;;;;5.10;2.22;;;;;;;26.22;37.75;102108.28;5117643;28;20027;-66
2023/06/13 04:15:27;;;;;;;9.20;2.13;;;;;;;26.49;37.15;102105.34;5114905;28;20035;-66
2023/06/13 04:17:54;;;;;;;5.85;2.53;;;;;;;26.52;37.20;102106.69;5115774;28;20031;-66
2023/06/13 04:20:21;;;;;;;5.97;2.55;;;;;;;26.52;36.79;102090.94;5115733;28;20038;-66
2023/06/13 04:22:47;;;;;;;5.68;2.28;;;;;;;26.75;37.00;102108.91;5117125;28;20023;-67
2023/06/13 04:25:13;;;;;;;3.40;2.45;;;;;;;26.95;36.55;102108.06;5112265;28;20384;-65
2023/06/13 04:27:38;;;;;;;3.95;1.80;;;;;;;27.39;36.38;102097.22;5117376;28;20042;-66
2023/06/13 04:30:05;;;;;;;3.13;2.05;;;;;;;27.56;36.03;102107.13;5117155;28;20197;-66
2023/06/13 04:32:33;;;;;;;3.00;2.00;;;;;;;27.54;36.29;102096.34;5118460;28;20027;-67
2023/06/13 04:34:58;;;;;;;4.43;2.10;;;;;;;27.92;35.86;102107.00;5117505;28;20038;-67
2023/06/13 04:37:25;;;;;;;5.10;2.10;;;;;;;27.86;36.39;102106.19;5099427;28;20027;-66
2023/06/13 04:39:54;;;;;;;3.78;1.80;;;;;;;28.14;36.47;102106.59;5117669;28;20110;-65
2023/06/13 04:42:24;;;;;;;3.17;1.73;;;;;;;28.30;36.86;102097.06;5119513;28;20108;-66
2023/06/13 04:44:56;;;;;;;4.63;1.65;;;;;;;28.75;37.11;102106.19;5119544;28;20035;-66
2023/06/13 04:47:26;;;;;;;3.22;1.55;;;;;;;28.65;37.66;102095.19;5117567;28;20080;-67
2023/06/13 04:49:58;;;;;;;5.90;1.33;;;;;;;28.29;38.05;102106.50;5117758;28;20128;-68
2023/06/13 04:52:32;;;;;;;1.50;1.10;;;;;;;28.16;38.16;102104.38;5116574;28;20019;-66
2023/06/13 04:54:57;;;;;;;4.97;1.50;;;;;;;27.98;38.33;102103.94;5116866;28;20065;-66
2023/06/13 04:57:23;;;;;;;2.88;1.40;;;;;;;27.74;38.58;102100.13;5117631;28;20282;-69
2023/06/13 04:59:48;;;;;;;4.18;1.70;;;;;;;28.01;38.16;102094.22;5099093;28;20028;-66
2023/06/13 05:02:16;;;;;;;2.92;1.30;;;;;;;28.00;38.03;102098.91;5099772;28;20036;-67
2023/06/13 05:04:42;;;;;;;4.70;1.40;;;;;;;27.91;38.13;102097.84;5117637;28;20102;-67
2023/06/13 05:07:07;;;;;;;3.50;1.20;;;;;;;27.86;37.56;102101.50;5118057;28;20525;-67
2023/06/13 05:09:33;;;;;;;3.03;1.38;;;;;;;27.91;37.59;102086.78;5117689;28;20024;-66
2023/06/13 05:11:58;;;;;;;2.83;1.30;;;;;;;28.06;37.21;102099.72;5115485;28;20031;-66
2023/06/13 05:14:24;;;;;;;1.83;1.30;;;;;;;28.33;36.87;102107.56;5116186;28;20030;-66
2023/06/13 05:16:50;;;;;;;3.75;1.40;;;;;;;28.14;36.37;102114.88;5113213;28;20034;-67
2023/06/13 05:19:17;;;;;;;3.35;1.33;;;;;;;27.94;36.23;102094.53;5115501;28;20031;-66
2023/06/13 05:21:43;;;;;;;2.80;1.45;;;;;;;27.94;36.31;102102.81;5114387;28;20347;-67
2023/06/13 05:24:10;;;;;;;4.65;1.42;;;;;;;28.09;36.05;102107.47;5113647;28;20031;-64
2023/06/13 05:26:36;;;;;;;7.57;1.58;;;;;;;28.20;35.53;102108.22;5117030;28;20050;-67
2023/06/13 05:29:05;;;;;;;2.75;1.38;;;;;;;27.71;35.77;102104.28;5118341;28;20102;-66
2023/06/13 05:31:31;;;;;;;5.13;1.50;;;;;;;27.17;35.45;102103.09;5116561;28;20031;-67
2023/06/13 05:33:56;;;;;;;3.40;1.00;;;;;;;26.97;35.55;102105.84;5098710;28;20035;-66
2023/06/13 05:36:22;;;;;;;2.70;1.20;;;;;;;27.09;35.78;102102.81;5116400;28;20096;-67
2023/06/13 05:38:48;;;;;;;4.53;1.45;;;;;;;27.15;35.66;102102.56;5113215;28;20031;-65
2023/06/13 05:41:13;;;;;;;3.65;1.30;;;;;;;27.07;35.60;102089.25;5114349;28;20491;-66
2023/06/13 05:43:40;;;;;;;2.40;1.30;;;;;;;27.48;35.66;102105.75;5115884;28;20036;-66
2023/06/13 05:46:05;;;;;;;9.50;1.40;;;;;;;27.48;35.85;102105.75;5114772;28;20023;-67
2023/06/13 05:48:31;;;;;;;3.15;1.23;;;;;;;27.21;35.85;102108.88;5114081;28;20024;-67
2023/06/13 05:50:57;;;;;;;4.65;1.33;;;;;;;27.18;36.32;102112.19;5113714;28;20019;-67
2023/06/13 05:53:23;;;;;;;6.35;1.40;;;;;;;27.11;36.33;102112.47;5114789;28;20376;-67
2023/06/13 05:55:48;;;;;;;5.00;1.20;;;;;;;26.71;36.54;102094.00;5116473;28;20034;-65
2023/06/13 05:58:14;;;;;;;3.92;1.33;;;;;;;26.71;36.20;102113.31;5098157;28;20038;-67
2023/06/13 06:00:40;;;;;;;3.00;1.60;;;;;;;26.44;36.33;102103.34;5115797;28;20093;-66
2023/06/13 06:03:05;;;;;;;2.88;1.10;;;;;;;26.57;35.48;102113.06;5113280;28;20039;-66
2023/06/13 06:05:31;;;;;;;5.78;1.60;;;;;;;26.46;34.37;102109.44;5096084;28;20031;-67
2023/06/13 06:07:56;;;;;;;4.22;1.30;;;;;;;26.35;33.97;102098.63;5115736;28;20012;-67
2023/06/13 06:10:22;;;;;;;3.17;1.30;;;;;;;26.51;34.36;102102.28;5114927;28;20031;-67
2023/06/13 06:12:47;;;;;;;4.63;1.23;;;;;;;26.46;33.76;102106.66;5121406;28;20036;-66
2023/06/13 06:15:13;;;;;;;3.47;1.30;;;;;;;26.35;33.06;102109.69;5099620;28;20452;-67
2023/06/13 06:17:38;;;;;;;2.92;1.55;;;;;;;26.00;32.07;102089.22;5113763;28;20028;-67
2023/06/13 06:20:06;;;;;;;5.82;1.30;;;;;;;26.00;31.59;102108.50;5118514;28;20092;-68
2023/06/13 06:22:31;;;;;;;1.65;1.30;;;;;;;25.82;30.91;102092.44;5116083;28;20574;-67
2023/06/13 06:24:57;;;;;;;5.65;1.38;;;;;;;26.17;30.74;102114.63;5116339;28;20078;-65
2023/06/13 06:27:22;;;;;;;1.90;1.15;;;;;;;26.28;30.01;102109.94;5116508;28;20039;-67
2023/06/13 06:29:48;;;;;;;4.10;1.40;;;;;;;26.27;28.93;102113.00;5115665;28;20039;-67
2023/06/13 06:32:13;;;;;;;3.47;1.10;;;;;;;26.30;29.19;102106.94;5097064;28;20055;-67
2023/06/13 06:34:38;;;;;;;5.20;1.20;;;;;;;26.18;29.54;102112.69;5113842;28;20031;-67
2023/06/13 06:37:05;;;;;;;2.40;1.10;;;;;;;26.32;29.70;102107.47;5115733;28;20102;-67
2023/06/13 06:39:30;;;;;;;1.80;1.10;;;;;;;26.02;29.73;102114.56;5116065;28;20035;-67
2023/06/13 06:41:55;;;;;;;4.40;1.10;;;;;;;25.90;30.05;102114.81;5115761;28;20020;-67
2023/06/13 06:44:21;;;;;;;2.92;1.15;;;;;;;26.07;30.22;102111.00;5117748;28;20053;-67
2023/06/13 06:46:46;;;;;;;3.17;1.20;;;;;;;26.42;30.21;102118.50;5119038;28;20064;-67
2023/06/13 06:49:12;;;;;;;6.85;1.58;;;;;;;26.14;31.04;102109.66;5083265;28;20062;-66
2023/06/13 06:51:37;;;;;;;3.42;1.10;;;;;;;26.18;30.81;102115.44;5116907;28;20024;-68
2023/06/13 06:54:03;;;;;;;6.18;1.30;;;;;;;26.36;30.27;102122.41;5117294;28;20132;-67
2023/06/13 06:56:28;;;;;;;2.97;1.33;;;;;;;26.19;30.99;102117.94;5099175;28;20088;-68
2023/06/13 06:58:54;;;;;;;4.95;1.40;;;;;;;26.27;31.13;102118.50;5121248;28;20046;-66
2023/06/13 07:01:20;;;;;;;3.63;1.30;;;;;;;26.20;30.88;102116.00;5114178;28;20068;-67
2023/06/13 07:03:45;;;;;;;3.53;1.30;;;;;;;25.70;32.08;102104.50;5116551;28;20054;-67
2023/06/13 07:06:11;;;;;;;2.38;1.30;;;;;;;25.35;32.89;102110.66;5118170;28;20030;-67
2023/06/13 07:08:37;;;;;;;4.60;1.35;;;;;;;25.07;33.73;102114.63;5119376;28;20368;-67
2023/06/13 07:11:02;;;;;;;4.13;1.50;;;;;;;24.84;34.51;102118.56;5117497;28;20027;-66
2023/06/13 07:13:28;;;;;;;8.75;1.50;;;;;;;24.49;35.84;102099.81;5099647;28;20115;-67
2023/06/13 07:15:53;;;;;;;3.95;1.50;;;;;;;24.55;35.44;102118.88;5115790;28;20027;-67
2023/06/13 07:18:19;;;;;;;4.20;1.40;;;;;;;24.39;36.11;102115.09;5116892;28;20487;-67
2023/06/13 07:20:45;;;;;;;6.75;1.35;;;;;;;24.19;36.40;102117.66;5118203;28;20130;-68
2023/06/13 07:23:12;;;;;;;4.57;1.52;;;;;;;24.12;36.76;102115.09;5117476;28;20449;-67
2023/06/13 07:25:40;;;;;;;2.53;1.15;;;;;;;24.16;36.42;102120.91;5118056;28;20089;-67
2023/06/13 07:28:06;;;;;;;3.95;1.20;;;;;;;24.17;35.77;102118.97;5118392;28;20024;-68
2023/06/13 07:30:32;;;;;;;5.72;1.20;;;;;;;24.27;36.03;102119.09;5116692;28;20157;-67
2023/06/13 07:32:57;;;;;;;7.72;1.40;;;;;;;24.18;36.63;102117.91;5099893;28;20031;-67
2023/06/13 07:35:23;;;;;;;4.10;1.35;;;;;;;24.07;37.46;102116.94;5118441;28;20510;-67
2023/06/13 07:37:55;;;;;;;3.75;1.40;;;;;;;24.08;37.25;102121.38;5116280;28;20027;-67
2023/06/13 07:40:21;;;;;;;1.92;1.27;;;;;;;24.13;36.53;102114.00;5117708;28;20055;-67
2023/06/13 07:42:50;;;;;;;3.30;1.45;;;;;;;24.13;36.67;102119.50;5117129;27;20100;-66
2023/06/13 07:45:16;;;;;;;3.92;1.30;;;;;;;24.12;37.74;102114.28;5117268;28;20039;-69
2023/06/13 07:47:42;;;;;;;3.85;1.35;;;;;;;24.22;37.53;102121.81;5117759;28;20141;-67
2023/06/13 07:50:08;;;;;;;2.97;1.25;;;;;;;24.20;37.47;102130.28;5116979;28;20467;-67
2023/06/13 07:52:33;;;;;;;2.65;1.52;;;;;;;24.06;38.87;102129.88;5116854;28;20036;-67
2023/06/13 07:54:59;;;;;;;3.78;1.20;;;;;;;24.18;39.63;102121.50;5116307;28;20023;-67
2023/06/13 07:57:24;;;;;;;2.92;1.23;;;;;;;24.02;40.31;102125.97;5116334;28;20032;-67
2023/06/13 07:59:50;;;;;;;4.45;1.30;;;;;;;23.89;39.92;102127.19;5116309;28;20091;-67
2023/06/13 08:02:15;;;;;;;3.25;1.50;;;;;;;23.89;39.57;102126.38;5116946;28;20488;-67
2023/06/13 08:04:41;;;;;;;3.17;1.25;;;;;;;23.78;40.80;102121.84;5116192;28;20114;-67
2023/06/13 08:07:06;;;;;;;3.92;1.40;;;;;;;23.66;40.59;102121.94;5116090;28;20031;-67
2023/06/13 08:09:32;;;;;;;6.18;1.60;;;;;;;23.45;41.99;102126.34;5115584;28;20023;-67
2023/06/13 08:11:58;;;;;;;4.80;1.40;;;;;;;23.28;45.25;102123.63;5116229;28;20504;-67
2023/06/13 08:14:24;;;;;;;4.72;1.42;;;;;;;23.26;45.82;102116.72;5112860;28;20376;-67
2023/06/13 08:16:50;;;;;;;5.72;1.52;;;;;;;23.31;46.77;102131.34;5116766;28;20110;-67
2023/06/13 08:19:15;;;;;;;4.82;1.70;;;;;;;23.07;44.81;102103.25;5117269;28;20548;-67
2023/06/13 08:21:41;;;;;;;2.60;1.60;;;;;;;23.11;46.79;102111.81;5116257;28;20140;-67
2023/06/13 08:24:06;;;;;;;6.95;1.50;;;;;;;23.19;48.94;102127.88;5116447;28;20430;-67
2023/06/13 08:26:33;;;;;;;2.90;1.48;;;;;;;23.19;46.71;102114.16;5113507;28;20484;-67
2023/06/13 08:29:02;;;;;;;4.15;1.40;;;;;;;23.20;46.21;102122.13;5114955;28;20030;-67
2023/06/13 08:31:29;;;;;;;3.13;1.45;;;;;;;23.30;48.14;102131.59;5116873;28;20035;-67
2023/06/13 08:33:55;;;;;;;5.57;1.60;;;;;;;23.45;47.17;102127.16;5114756;28;20055;-67
2023/06/13 08:36:25;;;;;;;6.20;1.60;;;;;;;23.47;47.25;102126.88;5116650;28;20512;-68
2023/06/13 08:38:52;;;;;;;3.10;1.40;;;;;;;23.38;46.62;102129.25;5114867;28;20035;-68
2023/06/13 08:41:19;;;;;;;4.03;1.88;;;;;;;23.38;46.71;102125.69;5095768;28;20027;-66
2023/06/13 08:43:45;;;;;;;2.05;1.38;;;;;;;23.40;47.17;102127.06;5113898;28;20038;-66
2023/06/13 08:46:11;;;;;;;3.45;1.25;;;;;;;23.70;46.69;102127.78;5113846;28;20126;-66
2023/06/13 08:48:37;;;;;;;3.22;1.83;;;;;;;23.96;46.91;102127.00;5115143;28;20049;-68
2023/06/13 08:51:04;;;;;;;2.85;1.52;;;;;;;23.87;47.04;102103.81;5114681;28;20512;-66
2023/06/13 08:53:32;;;;;;;1.63;1.25;;;;;;;23.86;46.53;102133.22;5114700;28;20042;-65
2023/06/13 08:56:03;;;;;;;4.78;1.45;;;;;;;23.89;48.37;102134.63;5114591;28;20023;-66
2023/06/13 08:58:35;;;;;;;2.38;1.35;;;;;;;23.88;47.73;102122.81;5116832;28;20499;-67
2023/06/13 09:01:02;;;;;;;5.30;1.60;;;;;;;23.83;47.65;102127.41;5116751;28;20035;-67
2023/06/13 09:03:29;;;;;;;3.40;1.67;;;;;;;24.04;47.78;102125.72;5113356;28;20036;-66
2023/06/13 09:05:56;;;;;;;2.45;1.30;;;;;;;23.92;46.64;102118.44;5114732;28;20027;-66
2023/06/13 09:08:24;;;;;;;4.85;1.55;;;;;;;24.04;46.00;102122.97;5115751;28;20028;-67
2023/06/13 09:10:50;;;;;;;2.42;1.38;;;;;;;23.82;45.23;102123.00;5115724;28;20055;-67
2023/06/13 09:13:17;;;;;;;5.35;1.35;;;;;;;23.72;45.47;102109.97;5116017;28;20544;-66
2023/06/13 09:15:44;;;;;;;2.20;1.50;;;;;;;23.71;45.88;102118.44;5112772;28;20045;-66
2023/06/13 09:18:14;;;;;;;2.58;1.40;;;;;;;23.79;45.41;102129.00;5116541;28;20373;-66
2023/06/13 09:20:40;;;;;;;4.20;1.60;;;;;;;23.82;45.33;102096.34;5117384;28;20043;-67
2023/06/13 09:23:07;;;;;;;6.85;1.60;;;;;;;24.20;45.41;102119.28;5117198;28;20053;-67
2023/06/13 09:25:35;;;;;;;5.38;1.50;;;;;;;24.25;45.89;102119.38;5117944;28;20063;-66
2023/06/13 09:28:27;;;;;;;4.68;1.58;;;;;;;24.13;42.49;102113.16;5116528;28;20068;-66
2023/06/13 09:30:53;;;;;;;3.65;1.40;;;;;;;23.72;40.67;102115.44;5117375;28;20485;-67
2023/06/13 09:33:20;;;;;;;4.72;1.20;;;;;;;;;;5115619;28;20061;-66
2023/06/13 09:35:47;;;;;;;4.35;1.85;;;;;;;23.53;37.98;102114.06;5117241;28;20024;-66
2023/06/13 09:38:13;;;;;;;3.30;1.40;;;;;;;23.50;37.75;102101.66;5115596;28;20035;-66
2023/06/13 09:40:39;;;;;;;6.95;1.90;;;;;;;23.42;40.28;102113.09;5095128;28;20023;-66
2023/06/13 09:43:04;;;;;;;1.70;1.33;;;;;;;23.38;39.87;102111.97;5116790;28;20031;-66
2023/06/13 09:45:30;;;;;;;3.88;1.58;;;;;;;23.43;40.68;102115.56;5114676;28;20051;-66
2023/06/13 09:47:57;;;;;;;3.70;1.40;;;;;;;23.39;40.87;102114.44;5116527;28;20357;-66
2023/06/13 09:50:22;;;;;;;3.58;1.67;;;;;;;23.33;40.74;102101.72;5113780;28;20081;-65
2023/06/13 09:52:48;;;;;;;2.88;1.50;;;;;;;23.19;42.12;102112.22;5102529;28;20020;-66
2023/06/13 09:55:13;;;;;;;5.70;1.45;;;;;;;23.02;42.93;102119.66;5112156;28;20034;-66
2023/06/13 09:57:38;;;;;;;3.40;1.42;;;;;;;23.03;43.38;102104.84;5115451;28;20391;-68
2023/06/13 10:00:08;;;;;;;3.88;1.63;;;;;;;22.77;43.62;102067.88;5114380;28;20037;-66
2023/06/13 10:02:34;;;;;;;6.53;1.55;;;;;;;23.18;43.78;102102.34;5116084;28;20024;-67
2023/06/13 10:05:00;;;;;;;3.92;1.50;;;;;;;23.22;43.65;102099.91;5115366;28;20088;-67
2023/06/13 10:07:26;;;;;;;5.68;1.60;;;;;;;23.35;43.43;102106.97;5116597;28;20020;-65
2023/06/13 10:09:52;;;;;;;2.72;1.63;;;;;;;23.48;42.87;102095.59;5114371;28;20392;-67
2023/06/13 10:12:21;;;;;;;3.25;1.40;;;;;;;23.47;42.94;102101.34;5113192;28;20074;-67
2023/06/13 10:14:58;;;;;;;2.92;1.60;;;;;;;23.58;43.01;102101.22;5112463;28;20030;-66
2023/06/13 10:17:28;;;;;;;8.05;1.48;;;;;;;23.67;43.15;102099.72;5118546;28;20563;-66
2023/06/13 10:20:00;;;;;;;5.20;1.48;;;;;;;23.65;43.33;102093.63;5118302;28;20118;-66
2023/06/13 10:22:26;;;;;;;5.45;1.45;;;;;;;23.78;42.95;102089.69;5116804;28;20054;-66
2023/06/13 10:24:53;;;;;;;4.55;1.60;;;;;;;23.81;44.16;102086.44;5119483;28;20023;-67
2023/06/13 10:27:21;;;;;;;4.00;1.60;;;;;;;23.61;44.73;102094.41;5103466;28;20024;-67
2023/06/13 10:29:56;;;;;;;2.47;1.42;;;;;;;23.82;43.53;102088.09;5119708;28;20548;-67
2023/06/13 10:32:28;;;;;;;3.67;1.40;;;;;;;23.49;44.34;102093.69;5119008;28;20038;-66
2023/06/13 10:35:15;;;;;;;5.32;1.48;;;;;;;23.72;43.38;102079.72;5118915;28;20031;-67
2023/06/13 10:38:17;;;;;;;4.63;1.92;;;;;;;23.91;43.65;102089.31;5119571;28;20036;-68
2023/06/13 10:41:02;;;;;;;3.67;1.60;;;;;;;23.92;43.18;102087.38;5120876;28;20028;-67
2023/06/13 10:43:48;;;;;;;;;;;;;;;24.29;42.49;102083.91;5119336;28;20668;-67
2023/06/13 10:46:13;;;;;;;2.72;1.48;;;;;;;24.07;43.59;102083.94;5119785;28;19907;-67
2023/06/13 10:48:47;;;;;;;5.35;1.77;;;;;;;23.89;43.97;102066.72;5101209;28;20398;-67
2023/06/13 10:51:13;;;;;;;5.00;1.35;;;;;;;23.88;44.40;102075.25;5119279;28;20027;-67
2023/06/13 10:53:38;;;;;;;5.32;1.65;;;;;;;23.88;44.31;102078.00;5117226;28;20046;-66
2023/06/13 10:56:07;;;;;;;2.80;1.60;;;;;;;23.92;44.71;102077.22;5119624;28;20038;-66
2023/06/13 10:58:35;;;;;;;3.88;1.50;;;;;;;23.92;44.42;102057.97;5117608;28;20476;-66
2023/06/13 11:01:33;;;;;;;2.20;1.48;;;;;;;24.16;44.55;102063.16;5118135;28;20422;-67
2023/06/13 11:04:17;;;;;;;4.88;1.60;;;;;;;23.78;45.13;102066.88;5109145;28;20043;-67
2023/06/13 11:06:45;;;;;;;4.78;1.48;;;;;;;23.88;44.07;102059.56;5118418;28;20023;-69
2023/06/13 11:09:22;;;;;;;3.08;1.50;;;;;;;23.48;43.47;102043.41;5119081;28;20046;-68
2023/06/13 11:11:54;;;;;;;2.05;1.50;;;;;;;23.53;43.05;102054.44;5117827;28;20026;-68
2023/06/13 11:14:28;;;;;;;2.90;1.35;;;;;;;23.71;41.55;102060.72;5099749;28;20444;-66
2023/06/13 11:16:55;;;;;;;2.53;1.50;;;;;;;24.13;40.31;102052.66;5116355;28;20429;-69
2023/06/13 11:19:23;;;;;;;2.67;1.40;;;;;;;24.06;41.23;102054.81;5117538;28;20085;-67
2023/06/13 11:22:06;;;;;;;3.15;1.40;;;;;;;24.19;40.48;102056.31;5113610;28;20044;-67
2023/06/13 11:24:35;;;;;;;4.90;1.52;;;;;;;24.14;41.60;102051.59;5118722;28;20046;-68
2023/06/13 11:27:05;;;;;;;3.28;1.40;;;;;;;23.77;43.44;102044.03;5117176;28;20032;-68
2023/06/13 11:29:32;;;;;;;2.28;1.48;;;;;;;23.58;43.29;102048.22;5119496;28;20032;-68